createdAt,value
2022-09-07T00:01:10.633Z,100.00
2022-09-07T00:03:38.157Z,100.00
2022-09-07T00:06:09.568Z,100.00
2022-09-07T00:08:39.764Z,100.00
2022-09-07T00:11:13.884Z,100.00
2022-09-07T00:13:44.142Z,100.00
2022-09-07T00:16:25.105Z,100.00
2022-09-07T00:18:55.740Z,100.00
2022-09-07T00:21:24.339Z,100.00
2022-09-07T00:23:52.892Z,100.00
2022-09-07T00:26:30.368Z,100.00
2022-09-07T00:29:03.984Z,100.00
2022-09-07T00:31:32.482Z,100.00
2022-09-07T00:34:02.109Z,100.00
2022-09-07T00:36:29.929Z,100.00
2022-09-07T00:38:58.395Z,100.00
2022-09-07T00:41:25.871Z,100.00
2022-09-07T00:44:43.981Z,100.00
2022-09-07T00:47:32.623Z,100.00
2022-09-07T00:50:10.450Z,100.00
2022-09-07T00:52:39.710Z,100.00
2022-09-07T00:55:12.583Z,100.00
2022-09-07T00:57:46.932Z,100.00
2022-09-07T01:00:14.354Z,100.00
2022-09-07T01:02:42.021Z,100.00
2022-09-07T01:05:42.689Z,100.00
2022-09-07T01:08:12.115Z,100.00
2022-09-07T01:10:40.365Z,100.00
2022-09-07T01:13:08.439Z,100.00
2022-09-07T01:15:54.179Z,100.00
2022-09-07T01:18:47.107Z,100.00
2022-09-07T01:22:04.273Z,100.00
2022-09-07T01:25:16.821Z,100.00
2022-09-07T01:28:42.188Z,100.00
2022-09-07T01:31:43.529Z,100.00
2022-09-07T01:34:23.881Z,100.00
2022-09-07T01:37:38.897Z,100.00
2022-09-07T01:40:56.829Z,100.00
2022-09-07T01:43:47.400Z,100.00
2022-09-07T01:46:54.138Z,100.00
2022-09-07T01:49:28.924Z,100.00
2022-09-07T01:52:06.373Z,100.00
2022-09-07T01:54:45.692Z,100.00
2022-09-07T01:57:28.708Z,100.00
2022-09-07T02:00:14.782Z,100.00
2022-09-07T02:03:03.937Z,100.00
2022-09-07T02:05:43.329Z,100.00
2022-09-07T02:08:18.108Z,100.00
2022-09-07T02:11:04.666Z,100.00
2022-09-07T02:14:09.540Z,100.00
2022-09-07T02:16:59.008Z,100.00
2022-09-07T02:19:36.313Z,100.00
2022-09-07T02:22:14.582Z,100.00
2022-09-07T02:24:50.100Z,100.00
2022-09-07T02:27:34.420Z,100.00
2022-09-07T02:30:01.909Z,100.00
2022-09-07T02:32:29.330Z,100.00
2022-09-07T02:34:56.815Z,100.00
2022-09-07T02:37:27.424Z,100.00
2022-09-07T02:39:55.131Z,100.00
2022-09-07T02:42:22.553Z,100.00
2022-09-07T02:44:50.286Z,100.00
2022-09-07T02:48:20.082Z,100.00
2022-09-07T02:51:14.553Z,100.00
2022-09-07T02:54:15.920Z,100.00
2022-09-07T02:57:27.455Z,100.00
2022-09-07T03:00:25.964Z,100.00
2022-09-07T03:03:18.235Z,100.00
2022-09-07T03:06:03.765Z,100.00
2022-09-07T03:08:47.257Z,100.00
2022-09-07T03:11:15.373Z,100.00
2022-09-07T03:13:42.668Z,100.00
2022-09-07T03:16:15.761Z,100.00
2022-09-07T03:18:44.306Z,100.00
2022-09-07T03:21:11.614Z,100.00
2022-09-07T03:23:39.135Z,100.00
2022-09-07T03:26:06.482Z,100.00
2022-09-07T03:28:33.893Z,100.00
2022-09-07T03:31:02.867Z,100.00
2022-09-07T03:33:30.200Z,100.00
2022-09-07T03:36:02.516Z,100.00
2022-09-07T03:38:31.099Z,100.00
2022-09-07T03:41:05.834Z,100.00
2022-09-07T03:43:34.427Z,100.00
2022-09-07T03:46:05.965Z,100.00
2022-09-07T03:48:35.296Z,100.00
2022-09-07T03:51:10.053Z,100.00
2022-09-07T03:53:42.973Z,100.00
2022-09-07T03:56:22.686Z,100.00
2022-09-07T03:58:51.766Z,100.00
2022-09-07T04:01:24.662Z,100.00
2022-09-07T04:03:53.733Z,100.00
2022-09-07T04:06:21.161Z,100.00
2022-09-07T04:08:49.112Z,100.00
2022-09-07T04:11:19.586Z,100.00
2022-09-07T04:13:46.996Z,100.00
2022-09-07T04:16:23.431Z,100.00
2022-09-07T04:18:51.810Z,100.00
2022-09-07T04:21:19.257Z,100.00
2022-09-07T04:23:46.604Z,100.00
2022-09-07T04:26:30.399Z,100.00
2022-09-07T04:29:01.167Z,100.00
2022-09-07T04:31:28.673Z,100.00
2022-09-07T04:33:56.629Z,100.00
2022-09-07T04:36:27.294Z,100.00
2022-09-07T04:39:01.529Z,100.00
2022-09-07T04:41:31.592Z,100.00
2022-09-07T04:44:04.687Z,100.00
2022-09-07T04:46:35.893Z,100.00
2022-09-07T04:49:09.458Z,100.00
2022-09-07T04:51:39.767Z,100.00
2022-09-07T04:54:07.301Z,100.00
2022-09-07T04:56:35.220Z,100.00
2022-09-07T04:59:03.626Z,100.00
2022-09-07T05:01:31.295Z,100.00
2022-09-07T05:04:01.350Z,100.00
2022-09-07T05:06:28.995Z,100.00
2022-09-07T05:08:58.678Z,100.00
2022-09-07T05:11:29.525Z,100.00
2022-09-07T05:13:59.870Z,100.00
2022-09-07T05:16:28.550Z,100.00
2022-09-07T05:19:01.505Z,100.00
2022-09-07T05:21:33.188Z,100.00
2022-09-07T05:24:02.481Z,100.00
2022-09-07T05:26:33.915Z,100.00
2022-09-07T05:31:54.673Z,100.00
2022-09-07T05:34:29.988Z,100.00
2022-09-07T05:36:57.924Z,100.00
2022-09-07T05:39:25.904Z,100.00
2022-09-07T05:41:53.738Z,100.00
2022-09-07T05:47:09.166Z,100.00
2022-09-07T05:49:36.553Z,100.00
2022-09-07T05:52:04.077Z,100.00
2022-09-07T05:54:31.357Z,100.00
2022-09-07T05:56:58.939Z,100.00
2022-09-07T05:59:26.378Z,100.00
2022-09-07T06:01:53.884Z,100.00
2022-09-07T06:04:21.316Z,100.00
2022-09-07T06:07:17.657Z,100.00
2022-09-07T06:12:24.209Z,100.00
2022-09-07T06:14:51.397Z,100.00
2022-09-07T06:17:18.727Z,100.00
2022-09-07T06:19:46.025Z,100.00
2022-09-07T06:22:13.318Z,100.00
2022-09-07T06:24:40.529Z,100.00
2022-09-07T06:27:07.850Z,100.00
2022-09-07T06:29:35.810Z,100.00
2022-09-07T06:34:52.593Z,100.00
2022-09-07T06:37:20.078Z,100.00
2022-09-07T06:39:48.806Z,100.00
2022-09-07T06:42:16.862Z,100.00
2022-09-07T06:44:45.049Z,100.00
2022-09-07T06:47:12.852Z,100.00
2022-09-07T06:49:40.256Z,100.00
2022-09-07T06:52:07.653Z,100.00
2022-09-07T06:57:22.379Z,100.00
2022-09-07T06:59:49.886Z,100.00
2022-09-07T07:02:17.391Z,100.00
2022-09-07T07:04:46.492Z,100.00
2022-09-07T07:07:14.623Z,100.00
2022-09-07T07:09:42.583Z,100.00
2022-09-07T07:12:11.186Z,100.00
2022-09-07T07:14:43.931Z,100.00
2022-09-07T07:17:13.627Z,100.00
2022-09-07T07:19:40.994Z,100.00
2022-09-07T07:22:23.821Z,100.00
2022-09-07T07:24:56.003Z,100.00
2022-09-07T07:27:23.482Z,100.00
2022-09-07T07:29:52.379Z,100.00
2022-09-07T07:32:20.060Z,100.00
2022-09-07T07:34:47.533Z,100.00
2022-09-07T07:37:16.162Z,100.00
2022-09-07T07:42:36.296Z,100.00
2022-09-07T07:47:53.158Z,100.00
2022-09-07T07:50:36.259Z,100.00
2022-09-07T07:55:53.198Z,100.00
2022-09-07T07:58:21.013Z,100.00
2022-09-07T08:00:54.608Z,100.00
2022-09-07T08:03:24.559Z,100.00
2022-09-07T08:05:52.371Z,100.00
2022-09-07T08:08:20.600Z,100.00
2022-09-07T08:10:48.178Z,100.00
2022-09-07T08:13:20.513Z,100.00
2022-09-07T08:15:48.376Z,100.00
2022-09-07T08:18:17.484Z,100.00
2022-09-07T08:20:45.209Z,100.00
2022-09-07T08:23:12.715Z,100.00
2022-09-07T08:25:54.608Z,100.00
2022-09-07T08:28:24.772Z,100.00
2022-09-07T08:30:53.091Z,100.00
2022-09-07T08:33:20.941Z,100.00
2022-09-07T08:36:07.233Z,100.00
2022-09-07T08:38:36.663Z,100.00
2022-09-07T08:41:49.984Z,100.00
2022-09-07T08:44:47.277Z,100.00
2022-09-07T08:47:33.352Z,100.00
2022-09-07T08:50:23.202Z,100.00
2022-09-07T08:53:13.523Z,100.00
2022-09-07T08:55:55.917Z,100.00
2022-09-07T08:58:49.757Z,100.00
2022-09-07T09:01:41.125Z,100.00
2022-09-07T09:04:29.536Z,100.00
2022-09-07T09:07:36.274Z,100.00
2022-09-07T09:10:28.816Z,100.00
2022-09-07T09:13:58.597Z,100.00
2022-09-07T09:16:44.089Z,100.00
2022-09-07T09:19:45.001Z,100.00
2022-09-07T09:22:19.723Z,100.00
2022-09-07T09:24:53.665Z,100.00
2022-09-07T09:27:20.857Z,100.00
2022-09-07T09:29:47.978Z,100.00
2022-09-07T09:32:41.612Z,100.00
2022-09-07T09:35:39.965Z,100.00
2022-09-07T09:38:36.661Z,100.00
2022-09-07T09:41:10.528Z,100.00
2022-09-07T09:43:58.143Z,100.00
2022-09-07T09:46:35.715Z,100.00
2022-09-07T09:49:19.893Z,100.00
2022-09-07T09:54:43.708Z,100.00
2022-09-07T10:01:22.359Z,100.00
2022-09-07T10:06:21.617Z,100.00
2022-09-07T10:09:02.284Z,100.00
2022-09-07T10:12:06.656Z,100.00
2022-09-07T10:14:45.737Z,100.00
2022-09-07T10:17:32.408Z,100.00
2022-09-07T10:20:22.254Z,100.00
2022-09-07T10:22:52.324Z,100.00
2022-09-07T10:25:45.446Z,100.00
2022-09-07T10:28:21.462Z,100.00
2022-09-07T10:31:32.477Z,100.00
2022-09-07T10:34:40.483Z,100.00
2022-09-07T10:37:12.037Z,100.00
2022-09-07T10:40:37.965Z,100.00
2022-09-07T10:43:41.288Z,100.00
2022-09-07T10:47:01.439Z,100.00
2022-09-07T10:53:40.576Z,100.00
2022-09-07T10:56:33.457Z,100.00
2022-09-07T11:00:11.486Z,100.00
2022-09-07T11:03:32.820Z,100.00
2022-09-07T11:06:26.204Z,100.00
2022-09-07T11:09:40.786Z,100.00
2022-09-07T11:12:28.153Z,100.00
2022-09-07T11:15:13.741Z,100.00
2022-09-07T11:17:58.205Z,100.00
2022-09-07T11:20:32.334Z,100.00
2022-09-07T11:23:12.020Z,100.00
2022-09-07T11:26:26.757Z,100.00
2022-09-07T11:29:31.114Z,100.00
2022-09-07T11:32:17.608Z,100.00
2022-09-07T11:35:02.117Z,100.00
2022-09-07T11:37:59.094Z,100.00
2022-09-07T11:41:02.621Z,100.00
2022-09-07T11:43:42.019Z,100.00
2022-09-07T11:46:43.694Z,100.00
2022-09-07T11:49:25.937Z,100.00
2022-09-07T11:52:09.290Z,100.00
2022-09-07T11:54:59.092Z,100.00
2022-09-07T11:57:56.583Z,100.00
2022-09-07T12:00:41.503Z,100.00
2022-09-07T12:04:02.755Z,100.00
2022-09-07T12:06:56.840Z,100.00
2022-09-07T12:10:16.976Z,100.00
2022-09-07T12:13:23.865Z,100.00
2022-09-07T12:16:19.329Z,100.00
2022-09-07T12:19:24.538Z,100.00
2022-09-07T12:21:51.565Z,100.00
2022-09-07T12:24:51.644Z,100.00
2022-09-07T12:27:21.892Z,100.00
2022-09-07T12:30:02.546Z,100.00
2022-09-07T12:32:56.590Z,100.00
2022-09-07T12:35:37.110Z,100.00
2022-09-07T12:38:31.136Z,100.00
2022-09-07T12:41:00.158Z,100.00
2022-09-07T12:43:48.523Z,100.00
2022-09-07T12:46:38.774Z,100.00
2022-09-07T12:49:45.798Z,100.00
2022-09-07T12:52:42.471Z,100.00
2022-09-07T12:55:29.533Z,100.00
2022-09-07T12:58:14.137Z,100.00
2022-09-07T13:01:12.569Z,100.00
2022-09-07T13:04:50.122Z,100.00
2022-09-07T13:08:11.290Z,100.00
2022-09-07T13:10:43.957Z,100.00
2022-09-07T13:16:17.665Z,100.00
2022-09-07T13:18:46.383Z,100.00
2022-09-07T13:21:14.913Z,100.00
2022-09-07T13:27:41.607Z,100.00
2022-09-07T13:30:50.334Z,100.00
2022-09-07T13:33:29.863Z,100.00
2022-09-07T13:36:05.565Z,100.00
2022-09-07T13:38:36.355Z,100.00
2022-09-07T13:41:42.321Z,100.00
2022-09-07T13:44:26.138Z,100.00
2022-09-07T13:47:37.852Z,100.00
2022-09-07T13:50:47.196Z,100.00
2022-09-07T13:53:34.440Z,100.00
2022-09-07T13:56:14.465Z,100.00
2022-09-07T13:58:50.028Z,100.00
2022-09-07T14:01:27.694Z,98.69
2022-09-07T14:04:07.418Z,95.79
2022-09-07T14:06:38.001Z,97.88
2022-09-07T14:09:16.465Z,97.00
2022-09-07T14:11:54.286Z,88.09
2022-09-07T14:14:27.552Z,96.40
2022-09-07T14:17:04.803Z,88.67
2022-09-07T14:19:39.852Z,83.98
2022-09-07T14:22:20.736Z,71.86
2022-09-07T14:25:01.406Z,69.63
2022-09-07T14:27:44.885Z,63.03
2022-09-07T14:30:31.977Z,61.96
2022-09-07T14:33:22.072Z,66.14
2022-09-07T14:35:49.716Z,67.79
2022-09-07T14:41:19.001Z,67.71
2022-09-07T14:43:58.611Z,61.60
2022-09-07T14:46:34.370Z,72.25
2022-09-07T14:49:21.546Z,66.83
2022-09-07T14:51:49.619Z,64.58
2022-09-07T14:54:37.235Z,55.09
2022-09-07T14:57:13.149Z,53.87
2022-09-07T14:59:46.713Z,50.77
2022-09-07T15:02:21.972Z,51.42
2022-09-07T15:05:25.779Z,50.37
2022-09-07T15:07:58.547Z,48.44
2022-09-07T15:10:28.970Z,48.75
2022-09-07T15:12:59.783Z,49.96
2022-09-07T15:15:37.434Z,48.92
2022-09-07T15:19:18.401Z,51.33
2022-09-07T15:21:46.021Z,53.38
2022-09-07T15:24:13.620Z,50.15
2022-09-07T15:27:03.362Z,46.72
2022-09-07T15:29:31.759Z,47.20
2022-09-07T15:32:04.293Z,48.08
2022-09-07T15:34:33.425Z,51.03
2022-09-07T15:37:03.685Z,53.33
2022-09-07T15:39:31.715Z,58.46
2022-09-07T15:42:58.794Z,64.00
2022-09-07T15:44:46.262Z,70.81
2022-09-07T15:50:00.594Z,66.68
2022-09-07T15:52:28.118Z,70.58
2022-09-07T15:54:59.414Z,70.00
2022-09-07T16:00:15.049Z,81.94
2022-09-07T16:05:31.411Z,86.72
2022-09-07T16:10:55.777Z,83.80
2022-09-07T16:13:31.727Z,84.47
2022-09-07T16:15:59.942Z,85.56
2022-09-07T16:18:31.227Z,87.22
2022-09-07T16:21:11.954Z,92.11
2022-09-07T16:23:44.072Z,92.43
2022-09-07T16:26:12.681Z,94.78
2022-09-07T16:28:47.116Z,100.00
2022-09-07T16:31:34.389Z,100.00
2022-09-07T16:34:04.815Z,100.00
2022-09-07T16:36:32.077Z,100.00
2022-09-07T16:39:00.996Z,100.00
2022-09-07T16:41:33.218Z,100.00
2022-09-07T16:44:00.459Z,100.00
2022-09-07T16:46:35.275Z,100.00
2022-09-07T16:49:03.121Z,100.00
2022-09-07T16:51:30.299Z,100.00
2022-09-07T16:53:58.947Z,100.00
2022-09-07T16:56:30.218Z,100.00
2022-09-07T16:59:04.508Z,100.00
2022-09-07T17:01:35.543Z,100.00
2022-09-07T17:04:08.203Z,100.00
2022-09-07T17:06:40.129Z,100.00
2022-09-07T17:09:07.925Z,100.00
2022-09-07T17:11:37.016Z,100.00
2022-09-07T17:14:08.369Z,100.00
2022-09-07T17:16:39.655Z,100.00
2022-09-07T17:21:59.659Z,100.00
2022-09-07T17:24:27.107Z,100.00
2022-09-07T17:26:54.591Z,100.00
2022-09-07T17:29:21.888Z,100.00
2022-09-07T17:34:37.553Z,100.00
2022-09-07T17:37:04.999Z,100.00
2022-09-07T17:39:32.375Z,100.00
2022-09-07T17:42:00.926Z,100.00
2022-09-07T17:44:33.268Z,100.00
2022-09-07T17:47:03.475Z,100.00
2022-09-07T17:49:30.941Z,100.00
2022-09-07T17:51:59.853Z,100.00
2022-09-07T17:54:27.816Z,100.00
2022-09-07T17:56:55.385Z,100.00
2022-09-07T18:02:15.364Z,100.00
2022-09-07T18:04:42.949Z,100.00
2022-09-07T18:07:10.435Z,100.00
2022-09-07T18:09:37.712Z,100.00
2022-09-07T18:12:05.394Z,100.00
2022-09-07T18:14:32.857Z,100.00
2022-09-07T18:17:00.344Z,100.00
2022-09-07T18:19:28.408Z,100.00
2022-09-07T18:21:55.722Z,100.00
2022-09-07T18:24:24.530Z,100.00
2022-09-07T18:26:55.112Z,100.00
2022-09-07T18:29:34.351Z,100.00
2022-09-07T18:32:08.535Z,100.00
2022-09-07T18:34:40.589Z,100.00
2022-09-07T18:37:09.294Z,100.00
2022-09-07T18:39:36.756Z,100.00
2022-09-07T18:42:04.257Z,100.00
2022-09-07T18:47:27.509Z,100.00
2022-09-07T18:49:56.052Z,100.00
2022-09-07T18:55:11.802Z,100.00
2022-09-07T18:57:39.324Z,100.00
2022-09-07T19:00:09.509Z,100.00
2022-09-07T19:02:37.258Z,100.00
2022-09-07T19:07:52.756Z,100.00
2022-09-07T19:10:20.204Z,100.00
2022-09-07T19:12:47.603Z,100.00
2022-09-07T19:15:15.589Z,100.00
2022-09-07T19:17:42.891Z,100.00
2022-09-07T19:20:10.602Z,100.00
2022-09-07T19:22:38.068Z,100.00
2022-09-07T19:25:06.266Z,100.00
2022-09-07T19:27:33.887Z,100.00
2022-09-07T19:30:02.922Z,100.00
2022-09-07T19:32:33.230Z,100.00
2022-09-07T19:35:00.495Z,100.00
2022-09-07T19:37:29.798Z,100.00
2022-09-07T19:39:57.012Z,100.00
2022-09-07T19:42:25.838Z,100.00
2022-09-07T19:44:55.178Z,100.00
2022-09-07T19:47:25.287Z,100.00
2022-09-07T19:49:54.026Z,100.00
2022-09-07T19:52:21.212Z,100.00
2022-09-07T19:54:50.246Z,100.00
2022-09-07T19:57:17.808Z,100.00
2022-09-07T19:59:47.199Z,100.00
2022-09-07T20:02:15.015Z,100.00
2022-09-07T20:04:43.341Z,100.00
2022-09-07T20:07:11.963Z,100.00
2022-09-07T20:09:44.324Z,100.00
2022-09-07T20:12:12.667Z,100.00
2022-09-07T20:14:42.598Z,100.00
2022-09-07T20:17:12.531Z,100.00
2022-09-07T20:19:40.300Z,100.00
2022-09-07T20:22:08.762Z,100.00
2022-09-07T20:24:35.984Z,100.00
2022-09-07T20:27:09.036Z,100.00
2022-09-07T20:29:44.273Z,100.00
2022-09-07T20:32:11.723Z,100.00
2022-09-07T20:34:39.791Z,100.00
2022-09-07T20:37:07.565Z,100.00
2022-09-07T20:39:39.108Z,100.00
2022-09-07T20:42:08.111Z,100.00
2022-09-07T20:44:37.074Z,100.00
2022-09-07T20:47:06.160Z,100.00
2022-09-07T20:49:33.872Z,100.00
2022-09-07T20:52:01.425Z,100.00
2022-09-07T20:54:28.744Z,100.00
2022-09-07T20:56:56.165Z,100.00
2022-09-07T20:59:24.085Z,100.00
2022-09-07T21:01:52.058Z,100.00
2022-09-07T21:04:19.391Z,100.00
2022-09-07T21:06:47.050Z,100.00
2022-09-07T21:09:14.628Z,100.00
2022-09-07T21:11:45.026Z,100.00
2022-09-07T21:14:14.637Z,100.00
2022-09-07T21:16:42.729Z,100.00
2022-09-07T21:19:11.146Z,100.00
2022-09-07T21:21:42.723Z,100.00
2022-09-07T21:24:30.244Z,100.00
2022-09-07T21:26:57.377Z,100.00
2022-09-07T21:29:25.642Z,100.00
2022-09-07T21:31:54.651Z,100.00
2022-09-07T21:34:22.997Z,100.00
2022-09-07T21:36:50.917Z,100.00
2022-09-07T21:39:19.189Z,100.00
2022-09-07T21:41:46.634Z,100.00
2022-09-07T21:44:16.124Z,100.00
2022-09-07T21:46:45.570Z,100.00
2022-09-07T21:49:13.537Z,100.00
2022-09-07T21:51:41.233Z,100.00
2022-09-07T21:54:09.240Z,100.00
2022-09-07T21:56:36.905Z,100.00
2022-09-07T21:59:06.191Z,100.00
2022-09-07T22:01:33.842Z,100.00
2022-09-07T22:04:04.919Z,100.00
2022-09-07T22:06:33.675Z,100.00
2022-09-07T22:09:02.535Z,100.00
2022-09-07T22:11:30.458Z,100.00
2022-09-07T22:14:02.698Z,100.00
2022-09-07T22:16:33.986Z,100.00
2022-09-07T22:19:01.683Z,100.00
2022-09-07T22:21:30.678Z,100.00
2022-09-07T22:24:05.194Z,100.00
2022-09-07T22:26:39.486Z,100.00
2022-09-07T22:29:11.184Z,100.00
2022-09-07T22:31:39.856Z,100.00
2022-09-07T22:34:09.334Z,100.00
2022-09-07T22:36:44.913Z,100.00
2022-09-07T22:39:17.739Z,100.00
2022-09-07T22:41:47.187Z,100.00
2022-09-07T22:44:18.029Z,100.00
2022-09-07T22:46:47.411Z,100.00
2022-09-07T22:49:16.853Z,100.00
2022-09-07T22:51:44.773Z,100.00
2022-09-07T22:54:12.245Z,100.00
2022-09-07T22:56:40.439Z,100.00
2022-09-07T22:59:10.304Z,100.00
2022-09-07T23:01:38.947Z,100.00
2022-09-07T23:04:07.751Z,100.00
2022-09-07T23:06:39.399Z,100.00
2022-09-07T23:09:17.301Z,100.00
2022-09-07T23:11:47.048Z,100.00
2022-09-07T23:14:20.026Z,100.00
2022-09-07T23:16:48.260Z,100.00
2022-09-07T23:19:19.523Z,100.00
2022-09-07T23:21:47.603Z,100.00
2022-09-07T23:24:18.124Z,100.00
2022-09-07T23:26:46.852Z,100.00
2022-09-07T23:29:16.255Z,100.00
2022-09-07T23:31:45.672Z,100.00
2022-09-07T23:34:15.751Z,100.00
2022-09-07T23:36:45.787Z,100.00
2022-09-07T23:39:13.248Z,100.00
2022-09-07T23:41:40.439Z,100.00
2022-09-07T23:44:08.786Z,100.00
2022-09-07T23:46:36.368Z,100.00
2022-09-07T23:49:03.805Z,100.00
2022-09-07T23:51:31.298Z,100.00
2022-09-07T23:53:58.681Z,100.00
2022-09-07T23:56:50.965Z,100.00
2022-09-07T23:59:18.409Z,100.00
